NCAR-RAP Real-Time Weather Data

Output produced by METARs form (19 June 2019  11:38 UTC)
found at http://weather.rap.ucar.edu/surface/
 
KDCA 191052Z 19005KT 10SM FEW010 OVC013 23/21 A2984 RMK AO2 SLP104 T02280206
KDCA 190952Z 20003KT 10SM BKN013 BKN130 OVC250 23/21 A2984 RMK AO2 SLP104 T02280206
KDCA 190852Z 21003KT 10SM FEW009 BKN012 OVC130 23/21 A2984 RMK AO2 SLP105 T02280211 56017
KDCA 190752Z 19004KT 10SM BKN009 BKN060 BKN130 OVC250 22/21 A2985 RMK AO2 SLP106 T02220206
KDCA 190709Z 19004KT 10SM BKN010 OVC130 23/21 A2986 RMK AO2 T02280211
KDCA 190652Z 19006KT 10SM FEW011 BKN130 OVC250 23/21 A2987 RMK AO2 SLP114 T02280211
KDCA 190626Z 19008KT 10SM FEW011 BKN130 OVC250 23/21 A2988 RMK AO2 T02280211
KDCA 190552Z 19006KT 10SM FEW008 BKN016 OVC130 23/21 A2989 RMK AO2 SLP121 60060 T02280211 10228 20222 58006
KDCA 190510Z 19004KT 10SM SCT008 BKN016 OVC075 23/21 A2990 RMK AO2 T02280211
KDCA 190500Z 00000KT 10SM SCT008 BKN080 OVC095 23/21 A2990 RMK AO2 T02280211
KDCA 190452Z 16005KT 10SM SCT010 BKN090 OVC120 23/21 A2990 RMK AO2 SLP125 T02280211 403110222
KDCA 190352Z 17005KT 10SM FEW013 SCT110 BKN140 OVC250 23/21 A2991 RMK AO2 RAE20 SLP127 P0000 T02280211
KDCA 190252Z 18005KT 10SM -RA FEW013 FEW033 BKN120 OVC150 23/21 A2991 RMK AO2 SLP127 P0000 60060 T02280206 56001
KDCA 190152Z 17005KT 10SM -RA SCT016 BKN035 OVC041 23/21 A2991 RMK AO2 SLP128 P0054 T02280206
KDCA 190147Z 22003KT 9SM -RA SCT016 BKN035 OVC041 22/21 A2992 RMK AO2 P0054
KDCA 190135Z 21004KT 4SM RA BR SCT022 BKN040 OVC080 23/21 A2992 RMK AO2 P0052 T02280211
KDCA 190133Z 21005KT 2 1/2SM R01/5500VP6000FT RA BR SCT022 BKN040 OVC090 23/21 A2992 RMK AO2 P0052 T02280211
KDCA 190129Z 23007KT 1SM R01/3000VP6000FT +RA BR SCT020 BKN040 OVC090 23/21 A2991 RMK AO2 P0049 T02280211
KDCA 190125Z 23008KT 3/4SM R01/2800VP6000FT +RA BR SCT020 BKN038 OVC090 23/21 A2991 RMK AO2 P0039 T02280211
KDCA 190120Z 24011G15KT 1 1/2SM R01/2800VP6000FT +RA BR BKN032 BKN065 OVC100 23/21 A2991 RMK AO2 P0011 T02280206
KDCA 190112Z 21005KT 9SM -RA SCT050 BKN065 OVC100 22/21 A2991 RMK AO2 P0009 T02220206
KDCA 190106Z 21007KT 3SM -RA BR SCT046 BKN065 OVC080 22/21 A2991 RMK AO2 P0009 T02220206
KDCA 190103Z 19007KT 2 1/2SM +RA BR SCT050 BKN070 OVC110 22/21 A2991 RMK AO2 P0006 T02220206
KDCA 190052Z 16006KT 5SM +RA BR SCT055 BKN085 OVC110 22/21 A2990 RMK AO2 SLP125 P0006 T02220206
KDCA 182358Z 15007KT 7SM RA SCT060 BKN100 BKN120 BKN250 22/21 A2991 RMK AO2 LTG DSNT ALQDS P0001 T02220206
KDCA 182352Z 16010KT 9SM VCTS -RA BKN050CB BKN070 OVC110 22/21 A2991 RMK AO2 LTG DSNT ALQDS SLP129 CB VC NE-SE MOV E TSE45 P0031 60056 T02220206 10311 20222 51016
KDCA 182346Z 18008KT 4SM VCTS -RA BR BKN050CB BKN070 OVC110 22/21 A2991 RMK AO2 LTG DSNT ALQDS CB VC NE-SE MOV E TSE45 P0030
KDCA 182338Z 21008KT 2 1/2SM +TSRA BR BKN048CB BKN070 OVC085 22/20 A2991 RMK AO2 LTG DSNT ALQDS TSE34B35 OCNL LTGICCG ALQDS TS ALQDS MOV E P0027 T02220200
KDCA 182336Z 20008KT 3SM TSRA BKN046CB BKN070 OVC085 23/20 A2991 RMK AO2 LTG DSNT ALQDS TSE34B35 OCNL LTGICCG ALQDS TS ALQDS MOV E P0026 T02280200
KDCA 182334Z COR 21010KT 3SM TSRA BKN046CB BKN070 OVC085 23/20 A2992 RMK AO2 LTG DSNT ALQDS OCNL LTGICCG ALQDS TS ALQDS MOV E P0025 T02280200
KDCA 182331Z 21011KT 2 1/2SM TSRA BR BKN049CB OVC075 22/20 A2992 RMK AO2 LTG DSNT ALQDS OCNL LTGICCG ALQDS TS ALQDS MOV E P0024 T02220200
KDCA 182319Z 20010KT 1 3/4SM R01/3500VP6000FT TSRA SCT049CB OVC075 23/21 A2992 RMK AO2 LTG DSNT ALQDS OCNL LTGICCG SE-SW TS SE-SW MOV N P0010 T02330206
KDCA 182315Z 25009KT 4SM TSRA FEW040 SCT060CB OVC080 23/20 A2992 RMK AO2 LTG DSNT ALQDS OCNL LTGICCG SE-SW TS SE-SW MOV N P0009 T02280200
KDCA 182309Z 29009KT 3SM +TSRA FEW037 BKN060 OVC080 23/20 A2991 RMK AO2 LTG DSNT ALQDS P0007 T02280200
KDCA 182304Z 30011KT 2 1/2SM +TSRA SCT037 BKN065 OVC085 23/20 A2991 RMK AO2 LTG DSNT ALQDS P0005 T02280200
KDCA 182252Z 31008KT 3SM TSRA SCT018 BKN048CB OVC090 23/19 A2991 RMK AO2 PK WND 25028/2224 WSHFT 2213 LTG DSNT ALQDS RAB15 TSB12 SLP128 OCNL LTGICCG VC NW-NE CB VC NW-NE MOV N P0025 T02330194
KDCA 182241Z 29008G17KT 2 1/2SM TSRA SCT025 BKN048CB OVC090 23/19 A2991 RMK AO2 PK WND 25028/2224 WSHFT 2213 LTG DSNT ALQDS RAB15 TSB12 OCNL LTGICCG ALQDS TS ALQDS MOV NE P0021 T02330194
KDCA 182233Z 29015G28KT 1 3/4SM R01/6000FT +TSRA BKN044CB BKN055 OVC110 23/20 A2991 RMK AO2 PK WND 25028/2224 WSHFT 2213 LTG DSNT ALQDS RAB15 TSB12 OCNL LTGICCG ALQDS TS ALQDS MOV NE P0016 T02330200
KDCA 182230Z 27012G28KT 2SM R01/6000FT +TSRA BKN050CB BKN070 OVC110 24/21 A2990 RMK AO2 PK WND 25028/2224 WSHFT 2213 LTG DSNT ALQDS RAB15 TSB12 OCNL LTGICCG ALQDS TS ALQDS MOV NE P0013 T02390206
KDCA 182228Z 27014G28KT 2SM R01/5500VP6000FT +TSRA BKN045CB BKN055 OVC120 24/21 A2990 RMK AO2 PK WND 25028/2224 WSHFT 2213 LTG DSNT ALQDS RAB15 TSB12 OCNL LTGICCG E-W AND OHD TS E-W AND OHD MOV NE P0012 T02390211
KDCA 182221Z 24018G26KT 1 3/4SM R01/4500VP6000FT +TSRA BKN045CB BKN055 OVC120 25/22 A2989 RMK AO2 PK WND 23026/2217 LTG DSNT ALQDS RAB15 TSB12 PRESRR OCNL LTGICCG E-W AND OHD TS E-W AND OHD MOV NE P0007 T02500217
KDCA 182218Z 22019G26KT 2 1/2SM R01/4500VP6000FT +TSRA BKN055CB BKN070 BKN120 BKN250 27/22 A2988 RMK AO2 PK WND 23026/2217 LTG DSNT ALQDS RAB15 TSB12 OCNL LTGICCG E-W AND OHD TS E-W AND OHD MOV NE P0001 T02670217
KDCA 182212Z COR 20014G19KT 10SM TS SCT055CB BKN120 BKN250 28/21 A2987 RMK AO2 LTG DSNT ALQDS TSB12 OCNL LTGICCG SW-W TS SW-W MOV NE T02830206
KDCA 182152Z 21008KT 10SM FEW050CB BKN150 BKN250 29/21 A2987 RMK AO2 LTG DSNT ALQDS SLP113 CB VC SW MOV NE T02940211
KDCA 182052Z 27010KT 10SM SCT050 BKN130 BKN250 31/18 A2987 RMK AO2 SLP116 T03060183 56016
KDCA 181952Z 25012KT 10SM SCT043 BKN120 BKN250 31/19 A2988 RMK AO2 SLP119 T03110194
KDCA 181852Z 22007KT 10SM SCT040 BKN050 BKN250 30/21 A2990 RMK AO2 SLP124 T03000211
KDCA 181752Z 26009KT 10SM FEW028 SCT045 BKN100 OVC130 29/20 A2992 RMK AO2 SLP132 BINOVC T02890200 10294 20233 58006
KDCA 181652Z 17010KT 10SM SCT035 BKN100 BKN130 27/23 A2993 RMK AO2 SLP135 T02670228
KDCA 181552Z 16009KT 10SM FEW017 SCT100 BKN130 OVC160 26/23 A2994 RMK AO2 SLP138 T02610228
KDCA 181452Z 17005KT 10SM FEW015 FEW110 BKN160 BKN250 26/22 A2994 RMK AO2 SLP138 T02610222 53000
KDCA 181352Z 15004KT 10SM FEW013 FEW110 SCT160 BKN250 25/22 A2994 RMK AO2 SLP137 T02500222